Time;durP1;ratioP1;P1;durP2;ratioP2;P2;SDS_P1;SDS_P2;PMS_P1;PMS_P2;Temp;Humidity;BMP_temperature;BMP_pressure;BME280_temperature;BME280_humidity;BME280_pressure;Samples;Min_cycle;Max_cycle;Signal;HPM_P1;HPM_P2
2021/05/07 00:01:52;;;;;;;0.98;0.88;;;8.50;99.90;;;;;;4444422;32;20072;-73
2021/05/07 00:04:19;;;;;;;0.45;0.45;;;8.50;99.90;;;;;;4444679;32;20069;-74
2021/05/07 00:06:47;;;;;;;1.33;0.75;;;8.50;99.90;;;;;;4444863;32;20061;-74
2021/05/07 00:09:13;;;;;;;0.45;0.45;;;8.40;99.90;;;;;;4444913;32;20081;-73
2021/05/07 00:11:38;;;;;;;0.30;0.30;;;8.40;99.90;;;;;;4438349;32;20081;-73
2021/05/07 00:14:04;;;;;;;0.50;0.50;;;8.40;99.90;;;;;;4429463;32;20077;-73
2021/05/07 00:16:30;;;;;;;0.80;0.50;;;8.40;99.90;;;;;;4429670;32;20550;-74
2021/05/07 00:18:56;;;;;;;0.50;0.50;;;8.30;99.90;;;;;;4428358;32;20078;-73
2021/05/07 00:21:21;;;;;;;0.50;0.50;;;8.10;99.90;;;;;;4430060;32;20530;-73
2021/05/07 00:23:47;;;;;;;0.28;0.28;;;8.00;99.90;;;;;;4430528;32;20098;-73
2021/05/07 00:26:12;;;;;;;0.98;0.70;;;7.80;99.90;;;;;;4428677;32;20506;-73
2021/05/07 00:28:38;;;;;;;1.12;0.82;;;7.80;99.90;;;;;;4429300;32;20392;-74
2021/05/07 00:31:04;;;;;;;0.35;0.35;;;7.70;99.90;;;;;;4429850;32;20065;-73
2021/05/07 00:33:30;;;;;;;0.50;0.50;;;7.90;99.90;;;;;;4428807;32;20065;-73
2021/05/07 00:35:55;;;;;;;0.47;0.47;;;8.00;99.90;;;;;;4429133;32;20090;-73
2021/05/07 00:38:21;;;;;;;0.35;0.35;;;7.80;99.90;;;;;;4428576;32;20061;-73
2021/05/07 00:40:46;;;;;;;0.30;0.30;;;7.70;99.90;;;;;;4429146;32;20112;-74
2021/05/07 00:43:12;;;;;;;0.30;0.30;;;7.60;99.90;;;;;;4429805;32;20128;-74
2021/05/07 00:45:37;;;;;;;0.25;0.25;;;7.60;99.90;;;;;;4429086;32;20392;-73
2021/05/07 00:48:08;;;;;;;0.50;0.50;;;7.70;99.90;;;;;;4429578;32;20537;-73
2021/05/07 00:50:35;;;;;;;0.40;0.40;;;7.70;99.90;;;;;;4428873;32;20061;-73
2021/05/07 00:53:02;;;;;;;1.12;0.60;;;7.80;99.90;;;;;;4429632;32;20131;-73
2021/05/07 00:55:29;;;;;;;0.40;0.40;;;7.80;99.90;;;;;;4444039;32;20081;-74
2021/05/07 00:57:55;;;;;;;0.30;0.30;;;7.80;99.90;;;;;;4445708;32;20518;-73
2021/05/07 01:00:23;;;;;;;0.75;0.70;;;7.80;99.90;;;;;;4444159;32;20061;-73
2021/05/07 01:02:49;;;;;;;0.40;0.40;;;7.90;99.90;;;;;;4444016;32;20080;-73
2021/05/07 01:05:14;;;;;;;0.65;0.47;;;7.80;99.90;;;;;;4445474;32;20506;-73
2021/05/07 01:07:40;;;;;;;0.40;0.40;;;7.60;99.90;;;;;;4443824;32;20073;-73
2021/05/07 01:10:09;;;;;;;0.30;0.30;;;7.50;99.90;;;;;;4443945;32;20053;-74
2021/05/07 01:12:37;;;;;;;0.30;0.30;;;7.40;99.90;;;;;;4431538;32;20124;-73
2021/05/07 01:15:10;;;;;;;1.12;0.65;;;7.30;99.90;;;;;;4428936;32;20069;-73
2021/05/07 01:17:38;;;;;;;0.30;0.30;;;7.50;99.90;;;;;;4429092;32;20070;-74
2021/05/07 01:20:25;;;;;;;1.08;0.60;;;7.50;99.90;;;;;;4428661;32;20061;-73
2021/05/07 01:22:54;;;;;;;1.75;0.35;;;7.60;99.90;;;;;;4420211;32;20123;-74
2021/05/07 01:25:23;;;;;;;0.35;0.35;;;7.50;99.90;;;;;;4431268;32;20065;-73
2021/05/07 01:27:51;;;;;;;0.73;0.73;;;7.50;99.90;;;;;;4431115;32;20123;-73
2021/05/07 01:30:19;;;;;;;0.50;0.35;;;7.50;99.90;;;;;;4430726;32;20053;-73
2021/05/07 01:32:46;;;;;;;0.40;0.40;;;7.40;99.90;;;;;;4431631;32;20068;-74
2021/05/07 01:35:14;;;;;;;0.40;0.40;;;7.30;99.90;;;;;;4431642;32;20117;-74
2021/05/07 01:37:42;;;;;;;0.60;0.60;;;7.30;99.90;;;;;;4430637;32;20065;-73
2021/05/07 01:40:12;;;;;;;0.40;0.40;;;7.30;99.90;;;;;;4431248;32;20065;-72
2021/05/07 01:42:38;;;;;;;0.80;0.65;;;7.30;99.90;;;;;;4431010;32;20089;-73
2021/05/07 01:45:06;;;;;;;0.50;0.50;;;7.30;99.90;;;;;;4431423;32;20073;-73
2021/05/07 01:47:31;;;;;;;0.40;0.40;;;7.40;99.90;;;;;;4430907;32;20463;-73
2021/05/07 01:49:57;;;;;;;0.50;0.50;;;7.30;99.90;;;;;;4430446;32;20076;-73
2021/05/07 01:52:22;;;;;;;3.20;0.95;;;7.20;99.90;;;;;;4430791;32;20076;-73
2021/05/07 01:54:47;;;;;;;0.70;0.70;;;7.20;99.90;;;;;;4442594;32;20349;-74
2021/05/07 01:57:13;;;;;;;2.22;0.68;;;7.10;99.90;;;;;;4444914;32;20069;-73
2021/05/07 01:59:38;;;;;;;0.32;0.30;;;7.10;99.90;;;;;;4446285;32;20093;-74
2021/05/07 02:02:04;;;;;;;0.70;0.70;;;7.20;99.90;;;;;;4445693;32;20065;-73
2021/05/07 02:04:29;;;;;;;0.85;0.85;;;7.30;99.90;;;;;;4445777;32;20510;-73
2021/05/07 02:06:55;;;;;;;0.75;0.43;;;7.20;99.90;;;;;;4446132;32;20442;-73
2021/05/07 02:09:20;;;;;;;0.45;0.45;;;7.20;99.90;;;;;;4445241;32;20077;-73
2021/05/07 02:11:46;;;;;;;0.52;0.45;;;7.10;99.90;;;;;;4446225;32;20072;-73
2021/05/07 02:14:11;;;;;;;0.40;0.40;;;7.20;99.90;;;;;;4446585;32;20069;-73
2021/05/07 02:16:37;;;;;;;0.57;0.57;;;7.10;99.90;;;;;;4446184;32;20501;-74
2021/05/07 02:19:03;;;;;;;0.52;0.52;;;7.00;99.90;;;;;;4444811;32;20077;-73
2021/05/07 02:21:29;;;;;;;0.43;0.43;;;7.00;99.90;;;;;;4447336;32;20522;-73
2021/05/07 02:23:54;;;;;;;0.47;0.47;;;6.90;99.90;;;;;;4446968;32;20172;-73
2021/05/07 02:26:20;;;;;;;0.73;0.73;;;6.90;99.90;;;;;;4446768;32;20123;-74
2021/05/07 02:28:46;;;;;;;0.30;0.30;;;7.00;99.90;;;;;;4445990;32;20081;-74
2021/05/07 02:31:11;;;;;;;0.40;0.40;;;7.10;99.90;;;;;;4445464;32;20469;-73
2021/05/07 02:33:38;;;;;;;0.75;0.73;;;7.20;99.90;;;;;;4445940;32;20073;-74
2021/05/07 02:36:05;;;;;;;0.40;0.40;;;7.30;99.90;;;;;;4445841;32;20069;-73
2021/05/07 02:38:31;;;;;;;0.60;0.60;;;7.20;99.90;;;;;;4445272;32;20065;-73
2021/05/07 02:40:56;;;;;;;0.47;0.47;;;7.10;99.90;;;;;;4446568;32;20077;-73
2021/05/07 02:43:22;;;;;;;0.47;0.47;;;7.10;99.90;;;;;;4446676;32;20072;-73
2021/05/07 02:45:47;;;;;;;0.50;0.50;;;6.90;99.90;;;;;;4445567;32;20061;-73
2021/05/07 02:48:13;;;;;;;0.60;0.60;;;6.80;99.90;;;;;;4445953;32;20074;-73
2021/05/07 02:50:38;;;;;;;0.40;0.40;;;6.80;99.90;;;;;;4445594;32;20077;-73
2021/05/07 02:53:03;;;;;;;0.50;0.50;;;6.90;99.90;;;;;;4444444;32;20064;-73
2021/05/07 02:55:29;;;;;;;0.82;0.55;;;7.00;99.90;;;;;;4430011;32;20484;-74
2021/05/07 02:57:54;;;;;;;0.55;0.55;;;7.10;99.90;;;;;;4430391;32;20062;-73
2021/05/07 03:00:21;;;;;;;0.60;0.60;;;7.00;99.90;;;;;;4429297;32;20164;-74
2021/05/07 03:02:48;;;;;;;0.50;0.50;;;7.10;99.90;;;;;;4430534;32;20069;-73
2021/05/07 03:05:13;;;;;;;0.50;0.50;;;7.10;99.90;;;;;;4430373;32;20409;-73
2021/05/07 03:07:39;;;;;;;0.88;0.85;;;7.20;99.90;;;;;;4429695;32;20065;-73
2021/05/07 03:10:05;;;;;;;0.43;0.43;;;7.30;99.90;;;;;;4429698;32;20423;-73
2021/05/07 03:12:31;;;;;;;0.62;0.62;;;7.20;99.90;;;;;;4441294;32;20503;-73
2021/05/07 03:14:56;;;;;;;0.50;0.43;;;7.10;99.90;;;;;;4446477;32;20426;-73
2021/05/07 03:17:22;;;;;;;0.45;0.45;;;7.10;99.90;;;;;;4446307;32;20070;-73
2021/05/07 03:19:47;;;;;;;0.30;0.30;;;7.20;99.90;;;;;;4444650;32;20122;-73
2021/05/07 03:22:13;;;;;;;0.62;0.62;;;7.30;99.90;;;;;;4445853;32;20073;-73
2021/05/07 03:24:38;;;;;;;1.85;1.48;;;7.30;99.90;;;;;;4444855;32;20077;-74
2021/05/07 03:27:04;;;;;;;0.90;0.90;;;7.40;99.90;;;;;;4445649;32;20119;-74
2021/05/07 03:29:29;;;;;;;1.55;0.75;;;7.40;99.90;;;;;;4446048;32;20513;-74
2021/05/07 03:31:55;;;;;;;0.40;0.40;;;7.40;99.90;;;;;;4444439;32;20118;-74
2021/05/07 03:34:20;;;;;;;0.40;0.40;;;7.40;99.90;;;;;;4445173;32;20072;-74
2021/05/07 03:36:46;;;;;;;0.40;0.40;;;7.40;99.90;;;;;;4445361;32;20065;-73
2021/05/07 03:39:11;;;;;;;0.50;0.50;;;7.40;99.90;;;;;;4444525;32;20127;-74
2021/05/07 03:41:37;;;;;;;0.50;0.50;;;7.30;99.90;;;;;;4445476;32;20061;-74
2021/05/07 03:44:03;;;;;;;0.70;0.52;;;7.30;99.90;;;;;;4444223;32;20086;-73
2021/05/07 03:46:28;;;;;;;0.90;0.90;;;7.40;99.90;;;;;;4444902;32;20064;-73
2021/05/07 03:48:54;;;;;;;0.30;0.30;;;7.00;99.90;;;;;;4444718;32;20072;-74
2021/05/07 03:51:19;;;;;;;0.80;0.80;;;6.90;99.90;;;;;;4444694;32;20179;-74
2021/05/07 03:53:45;;;;;;;0.88;0.88;;;7.00;99.90;;;;;;4439658;32;20078;-73
2021/05/07 03:56:10;;;;;;;0.70;0.70;;;6.90;99.90;;;;;;4429518;32;20097;-73
2021/05/07 03:58:36;;;;;;;0.50;0.50;;;7.00;99.90;;;;;;4429369;32;20069;-73
2021/05/07 04:01:03;;;;;;;0.35;0.35;;;7.00;99.90;;;;;;4428989;32;20069;-73
2021/05/07 04:03:29;;;;;;;0.43;0.43;;;7.00;99.90;;;;;;4429953;32;20109;-73
2021/05/07 04:05:56;;;;;;;0.40;0.40;;;7.00;99.90;;;;;;4429607;32;20065;-73
2021/05/07 04:08:24;;;;;;;0.62;0.62;;;7.20;99.90;;;;;;4428760;32;20066;-73
2021/05/07 04:10:55;;;;;;;0.43;0.43;;;7.30;99.90;;;;;;4430214;32;20069;-73
2021/05/07 04:13:52;;;;;;;0.50;0.50;;;7.30;99.90;;;;;;4444159;32;20567;-74
2021/05/07 04:16:08;;;;;;;0.77;0.43;;;7.40;99.90;;;;;;4433038;32;20081;-73
2021/05/07 04:18:34;;;;;;;0.40;0.40;;;7.40;99.90;;;;;;4444849;32;20450;-73
2021/05/07 04:21:00;;;;;;;0.40;0.40;;;7.40;99.90;;;;;;4441823;32;20064;-72
2021/05/07 04:23:26;;;;;;;0.73;0.73;;;7.40;99.90;;;;;;4435438;32;20078;-73
2021/05/07 04:25:52;;;;;;;0.40;0.40;;;7.50;99.90;;;;;;4440878;32;20192;-73
2021/05/07 04:28:19;;;;;;;1.92;1.17;;;7.50;99.90;;;;;;4444054;32;20053;-73
2021/05/07 04:30:45;;;;;;;0.40;0.40;;;7.50;99.90;;;;;;4442957;32;20449;-73
2021/05/07 04:33:10;;;;;;;0.40;0.40;;;7.60;99.90;;;;;;4443271;32;20073;-73
2021/05/07 04:35:36;;;;;;;1.25;0.45;;;7.60;99.90;;;;;;4445037;32;20069;-73
2021/05/07 04:38:02;;;;;;;1.20;0.70;;;7.50;99.90;;;;;;4443004;32;20068;-73
2021/05/07 04:40:28;;;;;;;1.60;1.05;;;7.50;99.90;;;;;;4438180;32;20064;-74
2021/05/07 04:42:53;;;;;;;0.37;0.37;;;7.60;99.90;;;;;;4428431;32;20177;-74
2021/05/07 04:45:19;;;;;;;0.50;0.50;;;7.50;99.90;;;;;;4428228;32;20065;-73
2021/05/07 04:47:44;;;;;;;2.28;0.77;;;7.40;99.90;;;;;;4428369;32;20127;-74
2021/05/07 04:50:13;;;;;;;0.45;0.45;;;7.30;99.90;;;;;;4428206;32;20478;-73
2021/05/07 04:52:38;;;;;;;1.02;0.90;;;7.20;99.90;;;;;;4428615;32;20065;-73
2021/05/07 04:55:04;;;;;;;0.43;0.43;;;7.20;99.90;;;;;;4429713;32;20093;-74
2021/05/07 04:57:30;;;;;;;0.35;0.35;;;7.30;99.90;;;;;;4430450;32;20460;-74
2021/05/07 04:59:56;;;;;;;4.62;0.90;;;7.30;99.90;;;;;;4433073;32;20089;-73
2021/05/07 05:02:22;;;;;;;0.90;0.50;;;7.40;99.90;;;;;;4434676;32;20085;-74
2021/05/07 05:04:48;;;;;;;0.35;0.30;;;7.50;99.90;;;;;;4445159;32;20066;-73
2021/05/07 05:07:13;;;;;;;0.70;0.70;;;7.40;99.90;;;;;;4445482;32;20426;-73
2021/05/07 05:09:39;;;;;;;1.37;0.68;;;7.50;99.90;;;;;;4444841;32;20122;-73
2021/05/07 05:12:05;;;;;;;0.40;0.40;;;7.40;99.90;;;;;;4436240;32;20053;-74
2021/05/07 05:14:31;;;;;;;0.73;0.47;;;7.40;99.90;;;;;;4444071;32;20183;-73
2021/05/07 05:16:56;;;;;;;0.43;0.43;;;7.50;99.90;;;;;;4429510;32;20196;-73
2021/05/07 05:19:22;;;;;;;0.40;0.40;;;7.50;99.90;;;;;;4421810;32;20101;-73
2021/05/07 05:21:47;;;;;;;0.90;0.77;;;7.40;99.90;;;;;;4428263;32;20086;-74
2021/05/07 05:24:13;;;;;;;0.50;0.50;;;7.40;99.90;;;;;;4426035;32;20141;-73
2021/05/07 05:26:38;;;;;;;0.40;0.40;;;7.50;99.90;;;;;;4419667;32;20109;-73
2021/05/07 05:29:09;;;;;;;5.43;0.60;;;7.60;99.90;;;;;;4423728;32;20613;-73
2021/05/07 05:31:34;;;;;;;0.30;0.30;;;7.60;99.90;;;;;;4398351;32;21006;-72
2021/05/07 05:34:00;;;;;;;0.40;0.40;;;7.60;99.90;;;;;;4424018;32;20074;-73
2021/05/07 05:36:25;;;;;;;0.50;0.50;;;7.60;99.90;;;;;;4425292;32;20147;-73
2021/05/07 05:38:51;;;;;;;1.00;0.95;;;7.60;99.90;;;;;;4425113;32;20163;-72
2021/05/07 05:41:16;;;;;;;0.37;0.37;;;7.80;99.90;;;;;;4425159;32;20141;-72
2021/05/07 05:43:42;;;;;;;0.73;0.73;;;7.70;99.90;;;;;;4424804;32;20468;-72
2021/05/07 05:46:07;;;;;;;0.80;0.55;;;7.80;99.90;;;;;;4427134;32;20155;-73
2021/05/07 05:48:33;;;;;;;0.32;0.32;;;7.90;99.90;;;;;;4426474;32;20081;-73
2021/05/07 05:50:58;;;;;;;0.30;0.30;;;7.90;99.90;;;;;;4425072;32;20084;-73
2021/05/07 05:53:25;;;;;;;0.40;0.40;;;7.90;99.90;;;;;;4423612;32;20085;-73
2021/05/07 05:55:50;;;;;;;0.30;0.30;;;7.90;99.90;;;;;;4428343;32;20379;-72
2021/05/07 05:58:16;;;;;;;0.62;0.50;;;8.00;99.90;;;;;;4423686;32;20086;-73
2021/05/07 06:00:41;;;;;;;0.30;0.30;;;8.00;99.90;;;;;;4427305;32;20138;-73
2021/05/07 06:03:07;;;;;;;0.45;0.45;;;8.00;99.90;;;;;;4428474;32;20419;-72
2021/05/07 06:05:33;;;;;;;1.08;0.60;;;8.00;99.90;;;;;;4426380;32;20494;-73
2021/05/07 06:08:02;;;;;;;0.40;0.40;;;7.80;99.90;;;;;;4427170;32;20085;-74
2021/05/07 06:10:27;;;;;;;0.43;0.40;;;7.70;99.90;;;;;;4426338;32;20080;-73
2021/05/07 06:12:53;;;;;;;0.32;0.32;;;7.70;99.90;;;;;;4425205;32;20100;-73
2021/05/07 06:15:19;;;;;;;0.40;0.40;;;7.70;99.90;;;;;;4426975;32;20609;-73
2021/05/07 06:17:45;;;;;;;0.73;0.60;;;7.70;99.90;;;;;;4427205;32;20069;-73
2021/05/07 06:20:12;;;;;;;0.50;0.50;;;7.80;99.90;;;;;;4423416;32;20098;-74
2021/05/07 06:22:39;;;;;;;0.40;0.40;;;7.80;99.90;;;;;;4424969;32;20077;-72
2021/05/07 06:25:07;;;;;;;0.45;0.45;;;7.80;99.90;;;;;;4426533;32;20401;-73
2021/05/07 06:27:33;;;;;;;0.43;0.43;;;7.60;99.90;;;;;;4421077;32;20081;-73
2021/05/07 06:29:58;;;;;;;0.30;0.30;;;7.60;99.90;;;;;;4425712;32;20578;-72
2021/05/07 06:32:24;;;;;;;0.35;0.35;;;7.60;99.90;;;;;;4426420;32;20091;-73
2021/05/07 06:34:49;;;;;;;0.47;0.47;;;7.60;99.90;;;;;;4424371;32;20460;-72
2021/05/07 06:37:15;;;;;;;0.30;0.30;;;7.70;99.90;;;;;;4428283;32;20080;-72
2021/05/07 06:39:41;;;;;;;0.35;0.35;;;7.60;99.90;;;;;;4426054;32;20160;-72
2021/05/07 06:42:06;;;;;;;0.70;0.62;;;7.50;99.90;;;;;;4425722;32;20077;-72
2021/05/07 06:44:32;;;;;;;0.40;0.40;;;7.50;99.90;;;;;;4423440;32;20094;-72
2021/05/07 06:46:58;;;;;;;0.30;0.30;;;7.50;99.90;;;;;;4424911;32;20093;-72
2021/05/07 06:49:24;;;;;;;1.10;1.00;;;7.50;99.90;;;;;;4426744;32;20159;-72
2021/05/07 06:51:50;;;;;;;0.40;0.40;;;7.50;99.90;;;;;;4426784;32;20145;-72
2021/05/07 06:54:17;;;;;;;0.50;0.50;;;7.50;99.90;;;;;;4421375;32;20094;-72
2021/05/07 06:56:43;;;;;;;0.30;0.30;;;7.40;99.90;;;;;;4421799;32;20131;-72
2021/05/07 06:59:08;;;;;;;0.30;0.30;;;7.30;99.90;;;;;;4424485;32;20065;-72
2021/05/07 07:01:35;;;;;;;0.50;0.50;;;7.30;99.90;;;;;;4424626;32;20157;-72
2021/05/07 07:04:01;;;;;;;0.55;0.52;;;7.10;99.90;;;;;;4422842;32;20102;-72
2021/05/07 07:06:26;;;;;;;0.35;0.35;;;7.10;99.90;;;;;;4426847;32;20077;-72
2021/05/07 07:08:52;;;;;;;2.72;0.70;;;7.00;99.90;;;;;;4425741;32;20085;-73
2021/05/07 07:11:18;;;;;;;0.32;0.32;;;6.90;99.90;;;;;;4422439;32;20093;-73
2021/05/07 07:13:43;;;;;;;0.50;0.50;;;6.70;99.90;;;;;;4423280;32;20082;-73
2021/05/07 07:16:09;;;;;;;0.65;0.65;;;6.80;99.90;;;;;;4425789;32;20089;-72
2021/05/07 07:18:35;;;;;;;0.40;0.40;;;6.80;99.90;;;;;;4420911;32;20105;-72
2021/05/07 07:21:01;;;;;;;0.75;0.57;;;6.90;99.90;;;;;;4424264;32;20101;-72
2021/05/07 07:23:27;;;;;;;0.30;0.30;;;6.80;99.90;;;;;;4419848;32;20097;-72
2021/05/07 07:25:53;;;;;;;0.40;0.40;;;6.70;99.90;;;;;;4423987;32;20152;-71
2021/05/07 07:28:18;;;;;;;27.92;1.05;;;6.60;99.90;;;;;;4427155;32;20423;-72
2021/05/07 07:30:45;;;;;;;0.30;0.30;;;6.70;99.90;;;;;;4421842;32;20085;-72
2021/05/07 07:33:11;;;;;;;0.30;0.30;;;6.50;99.90;;;;;;4417208;32;20635;-72
2021/05/07 07:35:36;;;;;;;0.30;0.30;;;6.50;99.90;;;;;;4432117;32;20127;-72
2021/05/07 07:38:02;;;;;;;2.83;0.82;;;6.60;99.90;;;;;;4432499;32;20494;-72
2021/05/07 07:40:28;;;;;;;0.30;0.30;;;6.60;99.90;;;;;;4429955;32;20073;-72
2021/05/07 07:42:53;;;;;;;0.40;0.40;;;6.70;99.90;;;;;;4434563;32;20519;-72
2021/05/07 07:45:19;;;;;;;0.40;0.40;;;6.70;99.90;;;;;;4431563;32;20065;-72
2021/05/07 07:47:45;;;;;;;0.40;0.40;;;6.80;99.90;;;;;;4432624;32;20138;-72
2021/05/07 07:50:11;;;;;;;0.50;0.50;;;6.80;99.90;;;;;;4431223;32;20096;-72
2021/05/07 07:52:38;;;;;;;0.30;0.30;;;6.80;99.90;;;;;;4432254;32;20640;-72
2021/05/07 07:55:05;;;;;;;0.30;0.30;;;6.80;99.90;;;;;;4432223;32;20166;-72
2021/05/07 07:57:31;;;;;;;0.43;0.43;;;6.80;99.90;;;;;;4432657;32;20064;-72
2021/05/07 07:59:56;;;;;;;0.40;0.40;;;6.90;99.90;;;;;;4434774;32;20197;-72
2021/05/07 08:02:22;;;;;;;0.40;0.40;;;6.90;99.90;;;;;;4437436;32;20529;-72
2021/05/07 08:04:48;;;;;;;1.85;0.70;;;6.80;99.90;;;;;;4431496;32;20543;-72
2021/05/07 08:07:14;;;;;;;0.35;0.35;;;6.60;99.90;;;;;;4428351;32;20170;-72
2021/05/07 08:09:40;;;;;;;4.12;1.77;;;6.60;99.90;;;;;;4436258;32;20069;-72
2021/05/07 08:12:06;;;;;;;0.55;0.55;;;6.70;99.90;;;;;;4433798;32;20209;-72
2021/05/07 08:14:32;;;;;;;0.40;0.40;;;6.80;99.90;;;;;;4428414;32;20357;-72
2021/05/07 08:16:57;;;;;;;0.80;0.65;;;6.70;99.90;;;;;;4429914;32;20136;-72
2021/05/07 08:19:24;;;;;;;0.40;0.40;;;6.60;99.90;;;;;;4424217;32;20557;-72
2021/05/07 08:21:50;;;;;;;1.23;1.02;;;6.50;99.90;;;;;;4422514;32;20065;-72
2021/05/07 08:24:15;;;;;;;0.30;0.30;;;6.50;99.90;;;;;;4429134;32;20081;-72
2021/05/07 08:26:41;;;;;;;0.37;0.37;;;6.50;99.90;;;;;;4435609;32;20080;-72
2021/05/07 08:29:06;;;;;;;0.37;0.37;;;6.50;99.90;;;;;;4434673;32;20072;-72
2021/05/07 08:31:32;;;;;;;1.55;0.93;;;6.50;99.90;;;;;;4428036;32;20073;-72
2021/05/07 08:33:57;;;;;;;0.30;0.30;;;6.40;99.90;;;;;;4428570;32;20069;-72
2021/05/07 08:36:23;;;;;;;0.30;0.30;;;6.30;99.90;;;;;;4443608;26;20085;-62
2021/05/07 08:38:49;;;;;;;0.32;0.32;;;6.20;99.90;;;;;;4400365;32;20066;-62
2021/05/07 08:41:16;;;;;;;0.40;0.40;;;6.10;99.90;;;;;;4401418;32;20132;-62
2021/05/07 08:43:41;;;;;;;0.40;0.40;;;6.10;99.90;;;;;;4403330;32;20086;-62
2021/05/07 08:46:08;;;;;;;0.30;0.30;;;5.90;99.90;;;;;;4401921;32;20069;-62
2021/05/07 08:48:34;;;;;;;0.30;0.30;;;5.80;99.90;;;;;;4395678;32;20078;-62
2021/05/07 08:51:01;;;;;;;0.50;0.50;;;5.80;99.90;;;;;;4400265;32;20062;-61
2021/05/07 08:53:26;;;;;;;0.30;0.30;;;5.60;99.90;;;;;;4401536;32;20751;-62
2021/05/07 08:55:52;;;;;;;0.20;0.20;;;5.30;99.90;;;;;;4407455;32;20089;-62
2021/05/07 08:58:18;;;;;;;0.30;0.30;;;5.10;99.90;;;;;;4396515;32;20098;-62
2021/05/07 09:00:44;;;;;;;0.30;0.30;;;5.00;99.90;;;;;;4402301;32;20455;-61
2021/05/07 09:03:13;;;;;;;0.40;0.40;;;5.00;99.90;;;;;;4398237;32;20074;-62
2021/05/07 09:05:39;;;;;;;0.28;0.28;;;4.80;99.90;;;;;;4402932;32;20366;-61
2021/05/07 09:08:06;;;;;;;0.30;0.30;;;4.50;99.90;;;;;;4400658;32;20065;-62
2021/05/07 09:10:35;;;;;;;0.30;0.30;;;4.30;99.90;;;;;;4399572;32;20367;-62
2021/05/07 09:13:00;;;;;;;0.40;0.40;;;4.20;99.90;;;;;;4402611;32;20105;-62
2021/05/07 09:15:38;;;;;;;0.35;0.35;;;4.00;99.90;;;;;;4399456;32;20061;-62
2021/05/07 09:18:03;;;;;;;0.35;0.35;;;3.90;99.90;;;;;;4401479;32;20077;-62
2021/05/07 09:20:38;;;;;;;0.30;0.30;;;3.70;99.90;;;;;;4399937;32;20507;-61
2021/05/07 09:23:05;;;;;;;0.30;0.30;;;3.60;99.90;;;;;;4397608;32;20106;-62
2021/05/07 09:25:31;;;;;;;10.85;3.33;;;3.50;99.90;;;;;;4395088;32;20069;-62
2021/05/07 09:28:14;;;;;;;0.30;0.30;;;3.50;99.90;;;;;;4402375;32;20412;-62
2021/05/07 09:30:41;;;;;;;0.30;0.30;;;3.50;99.90;;;;;;4399547;32;20621;-63
2021/05/07 09:33:09;;;;;;;0.30;0.30;;;3.50;99.90;;;;;;4400858;32;20082;-63
2021/05/07 09:35:36;;;;;;;0.57;0.57;;;3.60;99.90;;;;;;4402084;32;20375;-63
2021/05/07 09:38:04;;;;;;;0.32;0.32;;;3.60;99.90;;;;;;4400695;32;20434;-63
2021/05/07 09:40:30;;;;;;;0.50;0.50;;;3.60;99.90;;;;;;4396069;32;95264;-64
2021/05/07 09:43:05;;;;;;;0.50;0.50;;;3.60;99.90;;;;;;4398671;32;20395;-63
2021/05/07 09:45:31;;;;;;;1.42;0.50;;;3.50;99.90;;;;;;4400460;32;20053;-63
2021/05/07 09:47:57;;;;;;;0.40;0.40;;;3.70;99.90;;;;;;4402070;32;20208;-63
2021/05/07 09:50:39;;;;;;;0.30;0.30;;;3.70;99.90;;;;;;4402816;32;20114;-63
2021/05/07 09:53:11;;;;;;;0.37;0.37;;;4.00;99.90;;;;;;4405606;32;20062;-62
2021/05/07 09:55:37;;;;;;;0.35;0.35;;;4.10;99.90;;;;;;4405553;32;20405;-63
2021/05/07 09:58:03;;;;;;;0.50;0.35;;;4.20;99.90;;;;;;4402567;32;20078;-63
2021/05/07 10:00:29;;;;;;;0.40;0.40;;;4.30;99.90;;;;;;4404913;32;20226;-63
2021/05/07 10:02:55;;;;;;;0.40;0.40;;;4.30;99.90;;;;;;4395779;32;20189;-63
2021/05/07 10:05:21;;;;;;;0.32;0.32;;;4.40;99.90;;;;;;4393383;32;20146;-63
2021/05/07 10:07:46;;;;;;;0.35;0.35;;;4.40;99.90;;;;;;4400124;32;20835;-64
2021/05/07 10:10:13;;;;;;;0.40;0.40;;;4.50;99.90;;;;;;4406935;32;20062;-63
2021/05/07 10:12:43;;;;;;;0.30;0.30;;;4.40;99.90;;;;;;4406094;32;20066;-63
2021/05/07 10:15:09;;;;;;;0.40;0.40;;;4.40;99.90;;;;;;4403960;32;20388;-63
2021/05/07 10:17:35;;;;;;;0.40;0.40;;;4.50;99.90;;;;;;4408821;32;20296;-62
2021/05/07 10:20:01;;;;;;;0.30;0.30;;;4.50;99.90;;;;;;4402927;32;20415;-63
2021/05/07 10:22:43;;;;;;;0.35;0.35;;;4.60;99.90;;;;;;4398502;32;20538;-63
2021/05/07 10:25:16;;;;;;;0.32;0.32;;;4.80;99.90;;;;;;4398167;32;20427;-62
2021/05/07 10:27:45;;;;;;;0.30;0.30;;;5.20;99.90;;;;;;4399440;32;20069;-64
2021/05/07 10:30:22;;;;;;;0.40;0.40;;;5.40;99.90;;;;;;4407753;32;20455;-64
2021/05/07 10:32:57;;;;;;;0.30;0.30;;;5.60;99.90;;;;;;4403695;32;20077;-62
2021/05/07 10:35:32;;;;;;;0.30;0.30;;;5.80;99.90;;;;;;4405211;32;20487;-63
2021/05/07 10:38:18;;;;;;;0.30;0.30;;;5.90;99.90;;;;;;4405304;32;20073;-63
2021/05/07 10:40:45;;;;;;;0.30;0.30;;;6.50;99.90;;;;;;4402672;32;20097;-63
2021/05/07 10:43:13;;;;;;;0.40;0.40;;;6.80;99.90;;;;;;4402929;32;20104;-64
2021/05/07 10:45:43;;;;;;;0.30;0.30;;;7.00;99.90;;;;;;4399974;32;20101;-63
2021/05/07 10:48:15;;;;;;;0.40;0.40;;;7.00;99.90;;;;;;4404447;32;20085;-63
2021/05/07 10:50:40;;;;;;;0.30;0.30;;;7.30;99.90;;;;;;4403976;32;20512;-63
2021/05/07 10:53:06;;;;;;;0.30;0.30;;;7.60;99.90;;;;;;4402908;32;20109;-63
2021/05/07 10:55:33;;;;;;;3.83;1.42;;;7.70;99.90;;;;;;4408448;32;20069;-63
2021/05/07 10:58:01;;;;;;;0.37;0.37;;;7.90;99.90;;;;;;4401739;32;20086;-62
2021/05/07 11:00:36;;;;;;;10.05;0.55;;;7.80;99.90;;;;;;4408076;32;20454;-62
2021/05/07 11:03:03;;;;;;;0.50;0.47;;;8.10;99.90;;;;;;4402426;32;20066;-63
2021/05/07 11:05:46;;;;;;;0.30;0.30;;;8.10;99.90;;;;;;4391580;32;20073;-63
2021/05/07 11:08:12;;;;;;;0.62;0.62;;;8.10;99.90;;;;;;4403551;32;20093;-61
2021/05/07 11:10:38;;;;;;;0.40;0.40;;;8.00;99.90;;;;;;4405294;32;20145;-62
2021/05/07 11:13:05;;;;;;;0.37;0.37;;;8.00;99.90;;;;;;4406166;32;20058;-62
2021/05/07 11:15:31;;;;;;;2.05;1.30;;;8.10;99.90;;;;;;4405875;32;21980;-63
2021/05/07 11:18:06;;;;;;;0.30;0.30;;;8.00;99.90;;;;;;4404165;32;20057;-62
2021/05/07 11:20:34;;;;;;;0.47;0.40;;;8.10;99.90;;;;;;4406958;32;20082;-63
2021/05/07 11:23:02;;;;;;;0.40;0.40;;;8.10;99.90;;;;;;4404192;32;20117;-61
2021/05/07 11:25:29;;;;;;;0.40;0.40;;;8.00;99.90;;;;;;4401299;32;20073;-60
2021/05/07 11:27:55;;;;;;;0.50;0.50;;;7.90;99.90;;;;;;4401450;32;20090;-59
2021/05/07 11:30:20;;;;;;;2.67;0.85;;;8.20;99.90;;;;;;4401688;32;20058;-61
2021/05/07 11:32:46;;;;;;;0.30;0.30;;;8.50;99.90;;;;;;4403536;32;20090;-61
2021/05/07 11:35:12;;;;;;;0.30;0.30;;;9.00;99.90;;;;;;4406422;32;20208;-62
2021/05/07 11:37:41;;;;;;;0.40;0.40;;;9.60;99.90;;;;;;4402794;32;20204;-59
2021/05/07 11:40:10;;;;;;;0.40;0.40;;;10.30;99.90;;;;;;4402114;32;20498;-60
2021/05/07 11:42:39;;;;;;;0.20;0.20;;;11.00;99.90;;;;;;4401419;32;20062;-60
2021/05/07 11:45:09;;;;;;;0.30;0.30;;;11.40;99.90;;;;;;4399289;32;20066;-60
2021/05/07 11:47:36;;;;;;;0.30;0.30;;;11.80;99.90;;;;;;4398699;32;20073;-61
2021/05/07 11:50:03;;;;;;;0.30;0.30;;;12.20;99.90;;;;;;4401554;32;20069;-60
2021/05/07 11:52:34;;;;;;;0.30;0.30;;;12.40;99.90;;;;;;4404150;32;20074;-61
2021/05/07 11:54:59;;;;;;;0.40;0.40;;;12.00;99.90;;;;;;4404212;32;20065;-60
2021/05/07 11:57:27;;;;;;;0.32;0.30;;;11.90;99.90;;;;;;4403360;32;20065;-59
2021/05/07 11:59:53;;;;;;;0.30;0.30;;;11.40;99.90;;;;;;4402068;32;20062;-61
2021/05/07 12:02:20;;;;;;;0.30;0.30;;;11.10;99.90;;;;;;4403783;32;20431;-60
2021/05/07 12:04:46;;;;;;;0.30;0.30;;;11.00;99.90;;;;;;4407961;32;20116;-59
2021/05/07 12:07:33;;;;;;;0.35;0.35;;;11.70;99.90;;;;;;4408021;32;20628;-60
2021/05/07 12:10:00;;;;;;;0.30;0.30;;;12.00;99.90;;;;;;4404449;32;20066;-59
2021/05/07 12:12:28;;;;;;;0.30;0.30;;;11.70;99.90;;;;;;4404289;32;20073;-59
2021/05/07 12:15:12;;;;;;;0.30;0.30;;;11.00;99.90;;;;;;4398649;32;20117;-60
2021/05/07 12:17:40;;;;;;;0.30;0.30;;;10.40;99.90;;;;;;4398652;32;20073;-60
2021/05/07 12:20:07;;;;;;;2.22;1.17;;;9.70;99.90;;;;;;4401387;32;20070;-60
2021/05/07 12:22:33;;;;;;;0.50;0.50;;;8.70;99.90;;;;;;4398453;32;20132;-61
2021/05/07 12:25:20;;;;;;;0.37;0.37;;;8.30;99.90;;;;;;4402417;32;20168;-60
2021/05/07 12:27:47;;;;;;;0.77;0.77;;;8.00;99.90;;;;;;4383533;32;20081;-60
2021/05/07 12:30:20;;;;;;;0.35;0.35;;;7.80;99.90;;;;;;4403562;32;20484;-60
2021/05/07 12:33:06;;;;;;;0.30;0.30;;;7.70;99.90;;;;;;4396386;32;20128;-60
2021/05/07 12:35:45;;;;;;;0.20;0.20;;;7.60;99.90;;;;;;4406456;32;20070;-61
2021/05/07 12:38:23;;;;;;;0.40;0.40;;;7.80;99.90;;;;;;4403563;32;20061;-61
2021/05/07 12:40:58;;;;;;;0.30;0.30;;;8.00;99.90;;;;;;4403768;32;20090;-61
2021/05/07 12:43:24;;;;;;;0.30;0.30;;;8.10;99.90;;;;;;4386619;32;20078;-60
2021/05/07 12:45:51;;;;;;;0.30;0.30;;;8.20;99.90;;;;;;4402165;32;20110;-60
2021/05/07 12:48:17;;;;;;;1.05;0.98;;;8.20;99.90;;;;;;4407929;32;20900;-62
2021/05/07 12:50:43;;;;;;;0.30;0.30;;;8.10;99.90;;;;;;4407784;32;20061;-60
2021/05/07 12:53:10;;;;;;;0.40;0.40;;;8.00;99.90;;;;;;4405993;32;20069;-61
2021/05/07 12:55:37;;;;;;;0.30;0.30;;;8.10;99.90;;;;;;4411137;32;20478;-61